Murrell, Pennsylvania
Current Conditions -  °F | °C
As of 1:13 AM on Monday 24 Nov 2014 (Local Time) from KLNS Reporting Station
Moderate Rain Moderate Rain  
Wind Chill: 53°   Ceiling: 600
Heat Index: 53°   Visibility: 3mi
Dew Point: 52°   Wind: 12mph
Humidity: 96%   Direction: 120°ESE
Pressure: 29.74"   Gusts: NA
Location:  40.1811°N, 76.176°W
Report Text: KLNS 240613Z AUTO 12010KT 3SM RA BR OVC006 12/11 A2974 RMK AO2 CIG 004V011 P0003 T01170111
Loading
Personal Weather Stations






























Interactive Weather Map New forecast layout! Learn more

10-Day Weather Forecast

Advertisements
Track Severe Weather on mobile